Time,TemperatureF,DewpointF,PressureIn,WindDirection,WindDirectionDegrees,WindSpeedMPH,WindSpeedGustMPH,Humidity,HourlyPrecipIn,Conditions,Clouds,dailyrainin,SoftwareType,DateUTC
2013-05-04 00:00:00,58.4,57.0,29.86,East,92,12.0,12.0,95,0.00,,,0.00,Wunderground v.1.15,2013-05-04 05:00:00,
2013-05-04 00:10:00,58.9,57.5,29.86,ENE,73,12.0,12.0,95,0.00,,,0.00,Wunderground v.1.15,2013-05-04 05:10:00,
2013-05-04 00:15:00,59.4,57.7,29.86,East,88,12.0,12.0,94,0.00,,,0.00,Wunderground v.1.15,2013-05-04 05:15:00,
2013-05-04 00:20:00,59.7,58.0,29.86,ESE,107,13.0,15.0,94,0.00,,,0.01,Wunderground v.1.15,2013-05-04 05:20:00,
2013-05-04 00:25:00,60.1,58.1,29.87,ESE,113,14.0,15.0,93,0.00,,,0.01,Wunderground v.1.15,2013-05-04 05:25:00,
2013-05-04 00:30:00,60.1,58.1,29.87,East,94,13.0,13.0,93,0.00,,,0.01,Wunderground v.1.15,2013-05-04 05:30:00,
2013-05-04 00:35:00,59.9,57.9,29.87,East,97,11.0,13.0,93,0.00,,,0.01,Wunderground v.1.15,2013-05-04 05:35:00,
2013-05-04 00:40:00,59.8,57.8,29.87,East,88,12.0,14.0,93,0.00,,,0.01,Wunderground v.1.15,2013-05-04 05:40:00,
2013-05-04 00:45:00,59.7,57.7,29.87,East,86,13.0,14.0,93,0.00,,,0.01,Wunderground v.1.15,2013-05-04 05:45:00,
2013-05-04 00:50:00,59.5,57.8,29.86,ESE,103,12.0,12.0,94,0.00,,,0.01,Wunderground v.1.15,2013-05-04 05:50:00,
2013-05-04 00:55:00,59.4,57.7,29.86,East,88,11.0,12.0,94,0.00,,,0.01,Wunderground v.1.15,2013-05-04 05:55:00,
2013-05-04 01:00:00,59.6,57.9,29.86,ESE,110,11.0,11.0,94,0.00,,,0.01,Wunderground v.1.15,2013-05-04 06:00:00,
2013-05-04 01:05:00,59.7,58.0,29.86,East,83,11.0,11.0,94,0.00,,,0.01,Wunderground v.1.15,2013-05-04 06:05:00,
2013-05-04 01:10:00,59.7,58.0,29.86,East,89,11.0,11.0,94,0.00,,,0.01,Wunderground v.1.15,2013-05-04 06:10:00,
2013-05-04 01:15:00,59.8,57.8,29.86,ESE,110,11.0,11.0,93,0.00,,,0.01,Wunderground v.1.15,2013-05-04 06:15:00,
2013-05-04 01:20:00,59.9,57.9,29.86,East,100,11.0,12.0,93,0.00,,,0.01,Wunderground v.1.15,2013-05-04 06:20:00,
2013-05-04 01:30:00,60.0,58.0,29.86,ESE,108,11.0,12.0,93,0.00,,,0.01,Wunderground v.1.15,2013-05-04 06:30:00,
2013-05-04 01:35:00,60.0,58.0,29.86,ESE,104,10.0,12.0,93,0.00,,,0.01,Wunderground v.1.15,2013-05-04 06:35:00,
2013-05-04 01:40:00,60.0,58.0,29.86,ESE,105,11.0,11.0,93,0.00,,,0.01,Wunderground v.1.15,2013-05-04 06:40:00,
2013-05-04 01:45:00,59.9,57.9,29.86,ESE,106,11.0,11.0,93,0.00,,,0.01,Wunderground v.1.15,2013-05-04 06:45:00,
2013-05-04 01:50:00,59.9,57.9,29.86,East,91,10.0,10.0,93,0.00,,,0.01,Wunderground v.1.15,2013-05-04 06:50:00,
2013-05-04 01:55:00,59.7,57.7,29.86,East,92,10.0,10.0,93,0.00,,,0.01,Wunderground v.1.15,2013-05-04 06:55:00,
2013-05-04 02:00:00,59.7,57.7,29.86,ESE,120,10.0,10.0,93,0.00,,,0.02,Wunderground v.1.15,2013-05-04 07:00:00,
2013-05-04 02:05:00,59.6,57.9,29.86,East,92,10.0,12.0,94,0.00,,,0.02,Wunderground v.1.15,2013-05-04 07:05:00,
2013-05-04 02:10:00,59.6,57.9,29.86,ESE,113,10.0,10.0,94,0.00,,,0.02,Wunderground v.1.15,2013-05-04 07:10:00,
2013-05-04 02:15:00,59.5,57.8,29.86,ESE,120,9.0,10.0,94,0.00,,,0.02,Wunderground v.1.15,2013-05-04 07:15:00,
2013-05-04 02:20:00,59.4,57.7,29.86,ESE,102,9.0,9.0,94,0.00,,,0.02,Wunderground v.1.15,2013-05-04 07:20:00,
2013-05-04 02:25:00,59.4,57.7,29.86,ESE,115,9.0,9.0,94,0.00,,,0.02,Wunderground v.1.15,2013-05-04 07:25:00,
2013-05-04 02:30:00,59.3,57.6,29.86,ESE,103,9.0,9.0,94,0.00,,,0.02,Wunderground v.1.15,2013-05-04 07:30:00,
2013-05-04 02:35:00,59.2,57.5,29.86,ESE,107,8.0,9.0,94,0.00,,,0.02,Wunderground v.1.15,2013-05-04 07:35:00,
2013-05-04 02:40:00,59.3,57.6,29.87,East,101,9.0,9.0,94,0.00,,,0.02,Wunderground v.1.15,2013-05-04 07:40:00,
2013-05-04 02:45:00,59.3,57.9,29.86,East,94,9.0,10.0,95,0.00,,,0.02,Wunderground v.1.15,2013-05-04 07:45:00,
2013-05-04 02:50:00,59.2,57.8,29.86,East,82,10.0,10.0,95,0.00,,,0.02,Wunderground v.1.15,2013-05-04 07:50:00,
2013-05-04 02:55:00,59.1,57.7,29.86,ESE,115,10.0,10.0,95,0.00,,,0.04,Wunderground v.1.15,2013-05-04 07:55:00,
2013-05-04 03:00:00,59.1,57.7,29.86,East,89,10.0,11.0,95,0.00,,,0.04,Wunderground v.1.15,2013-05-04 08:00:00,
2013-05-04 03:05:00,59.1,57.7,29.86,East,89,9.0,11.0,95,0.04,,,0.04,Wunderground v.1.15,2013-05-04 08:05:00,
2013-05-04 03:10:00,59.0,57.6,29.86,East,94,9.0,9.0,95,0.04,,,0.05,Wunderground v.1.15,2013-05-04 08:10:00,
2013-05-04 03:15:00,59.0,57.6,29.86,East,97,8.0,9.0,95,0.04,,,0.05,Wunderground v.1.15,2013-05-04 08:15:00,
2013-05-04 03:20:00,59.0,57.6,29.87,East,98,8.0,9.0,95,0.04,,,0.05,Wunderground v.1.15,2013-05-04 08:20:00,
2013-05-04 03:25:00,59.0,57.6,29.86,ENE,71,9.0,9.0,95,0.04,,,0.06,Wunderground v.1.15,2013-05-04 08:25:00,
2013-05-04 03:30:00,59.1,57.7,29.86,ENE,64,10.0,10.0,95,0.04,,,0.06,Wunderground v.1.15,2013-05-04 08:30:00,
2013-05-04 03:35:00,59.3,57.9,29.86,ESE,122,11.0,11.0,95,0.04,,,0.06,Wunderground v.1.15,2013-05-04 08:35:00,
2013-05-04 03:40:00,59.4,58.0,29.86,East,79,10.0,10.0,95,0.00,,,0.06,Wunderground v.1.15,2013-05-04 08:40:00,
2013-05-04 03:45:00,59.4,58.0,29.86,ENE,65,10.0,10.0,95,0.00,,,0.06,Wunderground v.1.15,2013-05-04 08:45:00,
2013-05-04 03:50:00,59.4,58.0,29.86,ENE,63,9.0,9.0,95,0.00,,,0.06,Wunderground v.1.15,2013-05-04 08:50:00,
2013-05-04 03:55:00,59.3,57.9,29.86,ENE,69,8.0,9.0,95,0.00,,,0.07,Wunderground v.1.15,2013-05-04 08:55:00,
2013-05-04 04:00:00,59.2,57.8,29.86,ENE,60,7.0,7.0,95,0.00,,,0.07,Wunderground v.1.15,2013-05-04 09:00:00,
2013-05-04 04:05:00,59.2,57.8,29.86,ENE,63,7.0,7.0,95,0.00,,,0.07,Wunderground v.1.15,2013-05-04 09:05:00,
2013-05-04 04:10:00,59.1,57.7,29.86,ENE,69,7.0,7.0,95,0.00,,,0.07,Wunderground v.1.15,2013-05-04 09:10:00,
2013-05-04 04:15:00,59.1,57.7,29.86,ENE,60,7.0,7.0,95,0.00,,,0.07,Wunderground v.1.15,2013-05-04 09:15:00,
2013-05-04 04:20:00,59.1,57.7,29.86,East,89,7.0,7.0,95,0.00,,,0.07,Wunderground v.1.15,2013-05-04 09:20:00,
2013-05-04 04:25:00,59.1,57.7,29.86,ENE,78,7.0,8.0,95,0.00,,,0.07,Wunderground v.1.15,2013-05-04 09:25:00,
2013-05-04 04:30:00,59.1,57.7,29.86,ENE,76,7.0,7.0,95,0.00,,,0.07,Wunderground v.1.15,2013-05-04 09:30:00,
2013-05-04 04:35:00,59.1,57.7,29.86,ENE,73,7.0,7.0,95,0.00,,,0.07,Wunderground v.1.15,2013-05-04 09:35:00,
2013-05-04 04:40:00,59.1,57.4,29.86,East,79,8.0,8.0,94,0.00,,,0.07,Wunderground v.1.15,2013-05-04 09:40:00,
2013-05-04 04:45:00,59.2,57.5,29.86,East,80,8.0,9.0,94,0.00,,,0.07,Wunderground v.1.15,2013-05-04 09:45:00,
2013-05-04 04:50:00,59.4,57.4,29.86,East,89,9.0,9.0,93,0.00,,,0.07,Wunderground v.1.15,2013-05-04 09:50:00,
2013-05-04 04:55:00,59.4,57.4,29.86,East,90,8.0,9.0,93,0.00,,,0.07,Wunderground v.1.15,2013-05-04 09:55:00,
2013-05-04 05:00:00,59.4,57.4,29.86,East,96,7.0,7.0,93,0.00,,,0.07,Wunderground v.1.15,2013-05-04 10:00:00,
2013-05-04 05:05:00,59.3,57.3,29.86,East,98,6.0,7.0,93,0.00,,,0.07,Wunderground v.1.15,2013-05-04 10:05:00,
2013-05-04 05:10:00,59.2,57.2,29.86,East,89,6.0,6.0,93,0.00,,,0.07,Wunderground v.1.15,2013-05-04 10:10:00,
2013-05-04 05:15:00,59.1,57.1,29.86,East,90,5.0,6.0,93,0.00,,,0.07,Wunderground v.1.15,2013-05-04 10:15:00,
2013-05-04 05:20:00,59.0,57.3,29.86,East,101,5.0,5.0,94,0.00,,,0.07,Wunderground v.1.15,2013-05-04 10:20:00,
2013-05-04 05:25:00,59.0,57.3,29.86,East,96,4.0,5.0,94,0.00,,,0.07,Wunderground v.1.15,2013-05-04 10:25:00,
2013-05-04 05:30:00,58.9,57.2,29.86,East,94,4.0,4.0,94,0.00,,,0.07,Wunderground v.1.15,2013-05-04 10:30:00,
2013-05-04 05:35:00,58.7,57.0,29.86,ESE,102,4.0,4.0,94,0.00,,,0.07,Wunderground v.1.15,2013-05-04 10:35:00,
2013-05-04 05:40:00,58.7,57.0,29.87,East,94,4.0,5.0,94,0.00,,,0.07,Wunderground v.1.15,2013-05-04 10:40:00,
2013-05-04 05:45:00,58.8,57.1,29.87,ESE,110,5.0,5.0,94,0.00,,,0.07,Wunderground v.1.15,2013-05-04 10:45:00,
2013-05-04 05:50:00,58.9,56.9,29.87,East,96,5.0,5.0,93,0.00,,,0.07,Wunderground v.1.15,2013-05-04 10:50:00,
2013-05-04 06:00:00,59.1,57.1,29.88,ESE,120,6.0,6.0,93,0.00,,,0.07,Wunderground v.1.15,2013-05-04 11:00:00,
2013-05-04 06:05:00,59.1,57.1,29.88,ESE,107,7.0,7.0,93,0.00,,,0.07,Wunderground v.1.15,2013-05-04 11:05:00,
2013-05-04 06:10:00,59.0,57.3,29.88,ESE,104,6.0,6.0,94,0.00,,,0.07,Wunderground v.1.15,2013-05-04 11:10:00,
2013-05-04 06:15:00,59.0,57.3,29.88,SE,136,6.0,6.0,94,0.00,,,0.07,Wunderground v.1.15,2013-05-04 11:15:00,
2013-05-04 06:20:00,58.9,57.2,29.89,ESE,122,5.0,5.0,94,0.00,,,0.07,Wunderground v.1.15,2013-05-04 11:20:00,
2013-05-04 06:25:00,58.8,57.1,29.89,ESE,120,5.0,7.0,94,0.00,,,0.07,Wunderground v.1.15,2013-05-04 11:25:00,
2013-05-04 06:30:00,58.9,56.9,29.89,SE,139,8.0,8.0,93,0.00,,,0.07,Wunderground v.1.15,2013-05-04 11:30:00,
2013-05-04 06:40:00,58.5,56.2,29.89,ESE,107,9.0,11.0,92,0.00,,,0.07,Wunderground v.1.15,2013-05-04 11:40:00,
2013-05-04 06:45:00,58.3,56.3,29.89,SSE,158,9.0,11.0,93,0.00,,,0.07,Wunderground v.1.15,2013-05-04 11:45:00,
2013-05-04 06:50:00,57.9,55.9,29.90,SSE,163,8.0,8.0,93,0.00,,,0.07,Wunderground v.1.15,2013-05-04 11:50:00,
2013-05-04 06:55:00,57.5,55.8,29.90,SSE,156,8.0,8.0,94,0.00,,,0.07,Wunderground v.1.15,2013-05-04 11:55:00,
2013-05-04 07:00:00,56.9,55.2,29.90,South,174,8.0,8.0,94,0.00,,,0.07,Wunderground v.1.15,2013-05-04 12:00:00,
2013-05-04 07:10:00,55.7,54.0,29.90,SSE,160,8.0,8.0,94,0.00,,,0.07,Wunderground v.1.15,2013-05-04 12:10:00,
2013-05-04 07:20:00,54.7,53.0,29.91,South,174,7.0,7.0,94,0.00,,,0.07,Wunderground v.1.15,2013-05-04 12:20:00,
2013-05-04 07:25:00,54.3,52.6,29.91,SSE,157,7.0,7.0,94,0.00,,,0.07,Wunderground v.1.15,2013-05-04 12:25:00,
2013-05-04 07:50:00,53.9,52.2,29.91,SE,143,4.0,4.0,94,0.00,,,0.07,Wunderground v.1.15,2013-05-04 12:50:00,
2013-05-04 07:55:00,54.0,52.6,29.92,SE,134,4.0,5.0,95,0.00,,,0.07,Wunderground v.1.15,2013-05-04 12:55:00,
2013-05-04 08:00:00,54.2,52.8,29.92,SSE,158,4.0,4.0,95,0.00,,,0.07,Wunderground v.1.15,2013-05-04 13:00:00,
2013-05-04 08:10:00,54.3,52.6,29.92,SE,138,3.0,5.0,94,0.00,,,0.07,Wunderground v.1.15,2013-05-04 13:10:00,
2013-05-04 08:15:00,54.5,53.1,29.92,ESE,122,4.0,5.0,95,0.00,,,0.07,Wunderground v.1.15,2013-05-04 13:15:00,
2013-05-04 08:20:00,54.6,52.9,29.92,SE,134,4.0,4.0,94,0.00,,,0.07,Wunderground v.1.15,2013-05-04 13:20:00,
2013-05-04 08:25:00,54.8,53.1,29.93,SE,132,4.0,4.0,94,0.00,,,0.07,Wunderground v.1.15,2013-05-04 13:25:00,
2013-05-04 08:30:00,54.7,53.0,29.93,ESE,114,3.0,3.0,94,0.00,,,0.07,Wunderground v.1.15,2013-05-04 13:30:00,
2013-05-04 08:35:00,54.8,53.1,29.93,ESE,120,3.0,3.0,94,0.00,,,0.07,Wunderground v.1.15,2013-05-04 13:35:00,
2013-05-04 08:40:00,55.1,53.7,29.93,ESE,103,3.0,3.0,95,0.00,,,0.07,Wunderground v.1.15,2013-05-04 13:40:00,
2013-05-04 08:45:00,55.3,53.9,29.93,ESE,120,3.0,3.0,95,0.00,,,0.07,Wunderground v.1.15,2013-05-04 13:45:00,
2013-05-04 08:50:00,55.7,54.3,29.93,ESE,112,3.0,4.0,95,0.00,,,0.07,Wunderground v.1.15,2013-05-04 13:50:00,
2013-05-04 08:55:00,56.0,54.6,29.93,ESE,112,3.0,5.0,95,0.00,,,0.07,Wunderground v.1.15,2013-05-04 13:55:00,
2013-05-04 09:00:00,56.2,54.5,29.93,ESE,122,4.0,4.0,94,0.00,,,0.07,Wunderground v.1.15,2013-05-04 14:00:00,
2013-05-04 09:05:00,56.5,54.5,29.93,ESE,117,4.0,5.0,93,0.00,,,0.07,Wunderground v.1.15,2013-05-04 14:05:00,
2013-05-04 09:10:00,56.5,54.5,29.93,SE,124,5.0,5.0,93,0.00,,,0.07,Wunderground v.1.15,2013-05-04 14:10:00,
2013-05-04 09:15:00,56.6,54.6,29.93,SE,128,5.0,5.0,93,0.00,,,0.07,Wunderground v.1.15,2013-05-04 14:15:00,
2013-05-04 09:25:00,56.5,54.5,29.93,ESE,123,6.0,7.0,93,0.00,,,0.07,Wunderground v.1.15,2013-05-04 14:25:00,
2013-05-04 09:30:00,56.5,54.5,29.93,SSE,153,5.0,5.0,93,0.00,,,0.07,Wunderground v.1.15,2013-05-04 14:30:00,
2013-05-04 09:40:00,56.2,54.2,29.94,SE,134,6.0,6.0,93,0.00,,,0.07,Wunderground v.1.15,2013-05-04 14:40:00,
2013-05-04 09:45:00,55.9,54.2,29.94,SE,124,7.0,7.0,94,0.00,,,0.07,Wunderground v.1.15,2013-05-04 14:45:00,
2013-05-04 09:50:00,55.6,53.9,29.95,SE,125,6.0,6.0,94,0.00,,,0.07,Wunderground v.1.15,2013-05-04 14:50:00,
2013-05-04 09:55:00,55.5,54.1,29.94,SE,136,4.0,6.0,95,0.00,,,0.07,Wunderground v.1.15,2013-05-04 14:55:00,
2013-05-04 10:00:00,55.6,54.2,29.94,South,169,2.0,2.0,95,0.00,,,0.07,Wunderground v.1.15,2013-05-04 15:00:00,
2013-05-04 10:05:00,55.8,54.4,29.94,SSW,210,1.0,2.0,95,0.00,,,0.07,Wunderground v.1.15,2013-05-04 15:05:00,
2013-05-04 10:10:00,56.3,54.9,29.94,SE,127,1.0,1.0,95,0.00,,,0.07,Wunderground v.1.15,2013-05-04 15:10:00,
2013-05-04 10:15:00,56.7,55.3,29.94,East,90,0.0,1.0,95,0.00,,,0.07,Wunderground v.1.15,2013-05-04 15:15:00,
2013-05-04 10:20:00,57.0,55.6,29.94,SSE,161,0.0,0.0,95,0.00,,,0.07,Wunderground v.1.15,2013-05-04 15:20:00,
2013-05-04 10:25:00,57.3,55.6,29.94,SSE,148,2.0,5.0,94,0.00,,,0.07,Wunderground v.1.15,2013-05-04 15:25:00,
2013-05-04 10:30:00,57.2,55.5,29.95,SSE,160,5.0,9.0,94,0.00,,,0.07,Wunderground v.1.15,2013-05-04 15:30:00,
2013-05-04 10:35:00,56.7,54.7,29.95,SE,141,7.0,9.0,93,0.00,,,0.07,Wunderground v.1.15,2013-05-04 15:35:00,
2013-05-04 10:40:00,56.5,54.8,29.95,SE,132,7.0,7.0,94,0.00,,,0.07,Wunderground v.1.15,2013-05-04 15:40:00,
2013-05-04 10:45:00,56.6,54.9,29.95,SE,126,6.0,7.0,94,0.00,,,0.07,Wunderground v.1.15,2013-05-04 15:45:00,
2013-05-04 10:50:00,56.9,55.2,29.95,SE,138,5.0,5.0,94,0.00,,,0.07,Wunderground v.1.15,2013-05-04 15:50:00,
2013-05-04 10:55:00,57.1,55.4,29.95,SE,141,4.0,5.0,94,0.00,,,0.07,Wunderground v.1.15,2013-05-04 15:55:00,
2013-05-04 11:00:00,57.3,55.6,29.95,SE,139,4.0,4.0,94,0.00,,,0.07,Wunderground v.1.15,2013-05-04 16:00:00,
2013-05-04 11:05:00,57.6,55.9,29.95,SSE,158,4.0,5.0,94,0.00,,,0.07,Wunderground v.1.15,2013-05-04 16:05:00,
2013-05-04 11:10:00,57.8,56.1,29.95,ESE,108,4.0,4.0,94,0.00,,,0.07,Wunderground v.1.15,2013-05-04 16:10:00,
2013-05-04 11:15:00,58.0,56.3,29.95,ESE,113,4.0,5.0,94,0.00,,,0.07,Wunderground v.1.15,2013-05-04 16:15:00,
2013-05-04 11:20:00,58.2,56.5,29.95,SE,130,4.0,4.0,94,0.00,,,0.07,Wunderground v.1.15,2013-05-04 16:20:00,
2013-05-04 11:25:00,58.5,56.8,29.95,ESE,104,3.0,4.0,94,0.00,,,0.07,Wunderground v.1.15,2013-05-04 16:25:00,
2013-05-04 11:30:00,58.7,57.0,29.95,ESE,104,2.0,6.0,94,0.00,,,0.07,Wunderground v.1.15,2013-05-04 16:30:00,
2013-05-04 11:35:00,59.1,57.1,29.95,East,96,4.0,9.0,93,0.00,,,0.07,Wunderground v.1.15,2013-05-04 16:35:00,
2013-05-04 11:40:00,59.4,57.4,29.95,ESE,112,6.0,6.0,93,0.00,,,0.07,Wunderground v.1.15,2013-05-04 16:40:00,
2013-05-04 11:45:00,59.7,57.4,29.95,East,86,6.0,6.0,92,0.00,,,0.07,Wunderground v.1.15,2013-05-04 16:45:00,
2013-05-04 11:50:00,60.1,57.8,29.95,ESE,112,6.0,6.0,92,0.00,,,0.07,Wunderground v.1.15,2013-05-04 16:50:00,
2013-05-04 11:55:00,60.4,58.1,29.95,ESE,103,6.0,7.0,92,0.00,,,0.07,Wunderground v.1.15,2013-05-04 16:55:00,
2013-05-04 12:00:00,60.5,57.2,29.95,East,96,6.0,10.0,89,0.00,,,0.07,Wunderground v.1.15,2013-05-04 17:00:00,
2013-05-04 12:10:00,60.8,57.5,29.95,ESE,120,8.0,8.0,89,0.00,,,0.07,Wunderground v.1.15,2013-05-04 17:10:00,
2013-05-04 12:15:00,61.1,58.1,29.95,East,84,8.0,9.0,90,0.00,,,0.07,Wunderground v.1.15,2013-05-04 17:15:00,
2013-05-04 12:20:00,61.3,58.0,29.95,ESE,110,8.0,10.0,89,0.00,,,0.07,Wunderground v.1.15,2013-05-04 17:20:00,
2013-05-04 12:25:00,61.6,58.0,29.95,East,89,9.0,10.0,88,0.00,,,0.07,Wunderground v.1.15,2013-05-04 17:25:00,
2013-05-04 12:30:00,61.8,57.6,29.95,ESE,123,10.0,10.0,86,0.00,,,0.07,Wunderground v.1.15,2013-05-04 17:30:00,
2013-05-04 12:35:00,61.9,57.3,29.95,East,84,10.0,10.0,85,0.00,,,0.07,Wunderground v.1.15,2013-05-04 17:35:00,
2013-05-04 12:45:00,62.2,57.3,29.94,East,85,9.0,10.0,84,0.00,,,0.07,Wunderground v.1.15,2013-05-04 17:45:00,
2013-05-04 12:55:00,62.9,58.0,29.94,ESE,117,8.0,11.0,84,0.00,,,0.07,Wunderground v.1.15,2013-05-04 17:55:00,
2013-05-04 13:00:00,63.1,58.5,29.94,ESE,110,10.0,10.0,85,0.00,,,0.07,Wunderground v.1.15,2013-05-04 18:00:00,
2013-05-04 13:05:00,63.3,58.7,29.94,ESE,108,9.0,10.0,85,0.00,,,0.07,Wunderground v.1.15,2013-05-04 18:05:00,
2013-05-04 13:10:00,63.2,57.9,29.94,ESE,107,9.0,9.0,83,0.00,,,0.07,Wunderground v.1.15,2013-05-04 18:10:00,
2013-05-04 13:15:00,63.4,59.1,29.94,ESE,112,8.0,11.0,86,0.00,,,0.07,Wunderground v.1.15,2013-05-04 18:15:00,
2013-05-04 13:25:00,63.5,58.6,29.94,East,101,9.0,9.0,84,0.00,,,0.07,Wunderground v.1.15,2013-05-04 18:25:00,
2013-05-04 13:35:00,63.2,57.6,29.95,East,101,11.0,11.0,82,0.00,,,0.07,Wunderground v.1.15,2013-05-04 18:35:00,
2013-05-04 13:40:00,63.0,57.1,29.94,East,90,11.0,11.0,81,0.00,,,0.07,Wunderground v.1.15,2013-05-04 18:40:00,
2013-05-04 13:45:00,62.8,57.2,29.94,ESE,108,11.0,11.0,82,0.00,,,0.07,Wunderground v.1.15,2013-05-04 18:45:00,
2013-05-04 13:50:00,63.0,56.4,29.94,ESE,110,11.0,12.0,79,0.00,,,0.07,Wunderground v.1.15,2013-05-04 18:50:00,
2013-05-04 14:00:00,63.4,57.5,29.94,ESE,105,10.0,10.0,81,0.00,,,0.07,Wunderground v.1.15,2013-05-04 19:00:00,
2013-05-04 14:05:00,63.5,57.2,29.94,ESE,110,9.0,10.0,80,0.00,,,0.07,Wunderground v.1.15,2013-05-04 19:05:00,
2013-05-04 14:10:00,63.4,56.4,29.94,ESE,110,8.0,10.0,78,0.00,,,0.07,Wunderground v.1.15,2013-05-04 19:10:00,
2013-05-04 14:15:00,63.3,56.3,29.94,East,94,8.0,10.0,78,0.00,,,0.07,Wunderground v.1.15,2013-05-04 19:15:00,
2013-05-04 14:20:00,63.3,57.4,29.94,ESE,104,8.0,8.0,81,0.00,,,0.07,Wunderground v.1.15,2013-05-04 19:20:00,
2013-05-04 14:25:00,63.1,56.8,29.94,ESE,120,8.0,8.0,80,0.00,,,0.07,Wunderground v.1.15,2013-05-04 19:25:00,
2013-05-04 14:35:00,62.9,57.0,29.94,ESE,117,6.0,7.0,81,0.00,,,0.07,Wunderground v.1.15,2013-05-04 19:35:00,
2013-05-04 14:40:00,62.8,56.5,29.94,ESE,105,7.0,7.0,80,0.00,,,0.07,Wunderground v.1.15,2013-05-04 19:40:00,
2013-05-04 14:45:00,62.5,57.3,29.95,SE,135,6.0,13.0,83,0.00,,,0.07,Wunderground v.1.15,2013-05-04 19:45:00,
2013-05-04 14:50:00,61.1,57.2,29.95,SE,129,9.0,11.0,87,0.00,,,0.07,Wunderground v.1.15,2013-05-04 19:50:00,
2013-05-04 14:55:00,59.9,57.3,29.96,ESE,102,10.0,11.0,91,0.00,,,0.09,Wunderground v.1.15,2013-05-04 19:55:00,
2013-05-04 15:00:00,59.4,56.8,29.95,ESE,115,9.0,9.0,91,0.00,,,0.09,Wunderground v.1.15,2013-05-04 20:00:00,
2013-05-04 15:05:00,59.5,57.2,29.95,ESE,104,8.0,9.0,92,0.00,,,0.09,Wunderground v.1.15,2013-05-04 20:05:00,
2013-05-04 15:15:00,59.6,57.6,29.95,East,97,7.0,8.0,93,0.00,,,0.09,Wunderground v.1.15,2013-05-04 20:15:00,
2013-05-04 15:20:00,59.6,57.3,29.95,East,101,8.0,8.0,92,0.00,,,0.09,Wunderground v.1.15,2013-05-04 20:20:00,
2013-05-04 15:25:00,59.6,57.0,29.95,ESE,107,8.0,9.0,91,0.00,,,0.09,Wunderground v.1.15,2013-05-04 20:25:00,
2013-05-04 15:35:00,59.5,56.9,29.95,ESE,111,9.0,9.0,91,0.00,,,0.09,Wunderground v.1.15,2013-05-04 20:35:00,
2013-05-04 15:40:00,59.4,56.8,29.95,ESE,102,9.0,9.0,91,0.00,,,0.09,Wunderground v.1.15,2013-05-04 20:40:00,
2013-05-04 15:45:00,59.3,56.7,29.95,East,80,8.0,10.0,91,0.00,,,0.09,Wunderground v.1.15,2013-05-04 20:45:00,
2013-05-04 15:50:00,59.2,56.9,29.95,East,81,8.0,8.0,92,0.00,,,0.09,Wunderground v.1.15,2013-05-04 20:50:00,
2013-05-04 15:55:00,59.3,57.0,29.95,East,90,8.0,9.0,92,0.00,,,0.09,Wunderground v.1.15,2013-05-04 20:55:00,
2013-05-04 16:00:00,59.3,57.0,29.95,East,84,8.0,8.0,92,0.00,,,0.09,Wunderground v.1.15,2013-05-04 21:00:00,
2013-05-04 16:05:00,59.4,57.1,29.95,East,91,8.0,8.0,92,0.00,,,0.09,Wunderground v.1.15,2013-05-04 21:05:00,
2013-05-04 16:10:00,59.3,56.7,29.95,East,101,8.0,8.0,91,0.00,,,0.09,Wunderground v.1.15,2013-05-04 21:10:00,
2013-05-04 16:15:00,59.4,57.1,29.95,East,93,8.0,8.0,92,0.00,,,0.09,Wunderground v.1.15,2013-05-04 21:15:00,
2013-05-04 16:20:00,59.4,57.1,29.95,East,94,8.0,8.0,92,0.00,,,0.09,Wunderground v.1.15,2013-05-04 21:20:00,
2013-05-04 16:25:00,59.4,57.1,29.95,ESE,113,7.0,9.0,92,0.00,,,0.09,Wunderground v.1.15,2013-05-04 21:25:00,
2013-05-04 16:35:00,59.7,57.4,29.95,ESE,105,7.0,7.0,92,0.00,,,0.09,Wunderground v.1.15,2013-05-04 21:35:00,
2013-05-04 16:40:00,59.9,57.3,29.95,ESE,102,8.0,8.0,91,0.00,,,0.09,Wunderground v.1.15,2013-05-04 21:40:00,
2013-05-04 16:45:00,60.0,57.4,29.95,East,94,8.0,8.0,91,0.00,,,0.09,Wunderground v.1.15,2013-05-04 21:45:00,
2013-05-04 16:50:00,59.9,57.3,29.95,ESE,122,8.0,8.0,91,0.00,,,0.09,Wunderground v.1.15,2013-05-04 21:50:00,
2013-05-04 16:55:00,59.9,57.3,29.95,ESE,108,8.0,8.0,91,0.00,,,0.09,Wunderground v.1.15,2013-05-04 21:55:00,
2013-05-04 17:00:00,59.9,57.3,29.95,ESE,107,8.0,8.0,91,0.00,,,0.09,Wunderground v.1.15,2013-05-04 22:00:00,
2013-05-04 17:10:00,60.2,57.9,29.95,ESE,110,7.0,8.0,92,0.00,,,0.09,Wunderground v.1.15,2013-05-04 22:10:00,
2013-05-04 17:15:00,60.3,57.4,29.96,ESE,110,7.0,8.0,90,0.00,,,0.09,Wunderground v.1.15,2013-05-04 22:15:00,
2013-05-04 17:20:00,60.3,57.4,29.96,ESE,120,7.0,7.0,90,0.00,,,0.09,Wunderground v.1.15,2013-05-04 22:20:00,
2013-05-04 17:25:00,60.4,57.5,29.96,East,82,6.0,7.0,90,0.00,,,0.09,Wunderground v.1.15,2013-05-04 22:25:00,
2013-05-04 17:30:00,60.5,57.2,29.96,East,92,6.0,8.0,89,0.00,,,0.09,Wunderground v.1.15,2013-05-04 22:30:00,
2013-05-04 17:35:00,60.7,57.1,29.97,ESE,110,7.0,8.0,88,0.00,,,0.09,Wunderground v.1.15,2013-05-04 22:35:00,
2013-05-04 17:40:00,60.8,56.6,29.96,ESE,111,7.0,8.0,86,0.00,,,0.09,Wunderground v.1.15,2013-05-04 22:40:00,
2013-05-04 17:45:00,60.9,57.0,29.97,ESE,122,8.0,8.0,87,0.00,,,0.09,Wunderground v.1.15,2013-05-04 22:45:00,
2013-05-04 17:50:00,61.0,57.1,29.97,ESE,116,6.0,7.0,87,0.00,,,0.09,Wunderground v.1.15,2013-05-04 22:50:00,
2013-05-04 17:55:00,61.0,56.8,29.97,SE,130,6.0,7.0,86,0.00,,,0.09,Wunderground v.1.15,2013-05-04 22:55:00,
2013-05-04 18:00:00,61.0,56.1,29.97,ESE,115,6.0,7.0,84,0.00,,,0.09,Wunderground v.1.15,2013-05-04 23:00:00,
2013-05-04 18:05:00,61.0,56.1,29.97,SE,127,7.0,8.0,84,0.00,,,0.09,Wunderground v.1.15,2013-05-04 23:05:00,
2013-05-04 18:10:00,60.9,55.4,29.97,ESE,113,9.0,9.0,82,0.00,,,0.09,Wunderground v.1.15,2013-05-04 23:10:00,
2013-05-04 18:15:00,60.9,56.0,29.97,ESE,113,9.0,9.0,84,0.00,,,0.09,Wunderground v.1.15,2013-05-04 23:15:00,
2013-05-04 18:20:00,60.8,55.9,29.97,ESE,103,8.0,8.0,84,0.00,,,0.09,Wunderground v.1.15,2013-05-04 23:20:00,
2013-05-04 18:30:00,60.5,56.0,29.97,ESE,113,7.0,7.0,85,0.00,,,0.09,Wunderground v.1.15,2013-05-04 23:30:00,
2013-05-04 18:35:00,60.5,56.3,29.97,ESE,114,6.0,7.0,86,0.00,,,0.09,Wunderground v.1.15,2013-05-04 23:35:00,
2013-05-04 18:40:00,60.4,56.2,29.97,ESE,108,6.0,6.0,86,0.00,,,0.09,Wunderground v.1.15,2013-05-04 23:40:00,
2013-05-04 18:45:00,60.3,56.4,29.97,ESE,103,6.0,6.0,87,0.00,,,0.09,Wunderground v.1.15,2013-05-04 23:45:00,
2013-05-04 18:50:00,60.2,56.3,29.97,ESE,106,5.0,6.0,87,0.00,,,0.09,Wunderground v.1.15,2013-05-04 23:50:00,
2013-05-04 18:55:00,60.1,56.2,29.98,East,96,5.0,6.0,87,0.00,,,0.09,Wunderground v.1.15,2013-05-04 23:55:00,
2013-05-04 19:00:00,60.0,56.4,29.98,ESE,108,5.0,5.0,88,0.00,,,0.09,Wunderground v.1.15,2013-05-05 00:00:00,
2013-05-04 19:05:00,59.9,56.3,29.98,East,98,4.0,5.0,88,0.00,,,0.09,Wunderground v.1.15,2013-05-05 00:05:00,
2013-05-04 19:10:00,59.8,56.2,29.98,East,94,4.0,5.0,88,0.00,,,0.09,Wunderground v.1.15,2013-05-05 00:10:00,
2013-05-04 19:15:00,59.7,56.5,29.98,East,82,4.0,5.0,89,0.00,,,0.09,Wunderground v.1.15,2013-05-05 00:15:00,
2013-05-04 19:20:00,59.6,56.4,29.99,ESE,116,5.0,7.0,89,0.00,,,0.09,Wunderground v.1.15,2013-05-05 00:20:00,
2013-05-04 19:25:00,59.5,56.6,29.99,ESE,117,5.0,7.0,90,0.00,,,0.09,Wunderground v.1.15,2013-05-05 00:25:00,
2013-05-04 19:30:00,59.0,55.8,30.00,SE,140,6.0,15.0,89,0.00,,,0.09,Wunderground v.1.15,2013-05-05 00:30:00,
2013-05-04 19:35:00,57.9,55.3,30.00,SE,127,9.0,15.0,91,0.00,,,0.09,Wunderground v.1.15,2013-05-05 00:35:00,
2013-05-04 19:40:00,57.2,55.2,30.01,SE,128,10.0,10.0,93,0.00,,,0.10,Wunderground v.1.15,2013-05-05 00:40:00,
2013-05-04 19:45:00,56.9,55.2,30.01,SE,139,9.0,10.0,94,0.09,,,0.11,Wunderground v.1.15,2013-05-05 00:45:00,
2013-05-04 19:50:00,56.8,55.1,30.01,SSE,148,10.0,10.0,94,0.08,,,0.11,Wunderground v.1.15,2013-05-05 00:50:00,
2013-05-04 19:55:00,56.7,55.0,30.01,South,177,9.0,10.0,94,0.05,,,0.11,Wunderground v.1.15,2013-05-05 00:55:00,
2013-05-04 20:00:00,56.5,54.8,30.01,SE,143,9.0,10.0,94,0.00,,,0.11,Wunderground v.1.15,2013-05-05 01:00:00,
2013-05-04 20:05:00,56.3,54.6,30.02,SSE,160,9.0,10.0,94,0.00,,,0.11,Wunderground v.1.15,2013-05-05 01:05:00,
2013-05-04 20:10:00,56.2,54.5,30.02,SE,136,9.0,9.0,94,0.00,,,0.11,Wunderground v.1.15,2013-05-05 01:10:00,
2013-05-04 20:15:00,56.1,54.7,30.02,SE,136,8.0,9.0,95,0.00,,,0.11,Wunderground v.1.15,2013-05-05 01:15:00,
2013-05-04 20:20:00,56.0,54.6,30.02,SE,138,7.0,7.0,95,0.00,,,0.11,Wunderground v.1.15,2013-05-05 01:20:00,
2013-05-04 20:25:00,55.8,54.4,30.02,SE,141,8.0,10.0,95,0.00,,,0.11,Wunderground v.1.15,2013-05-05 01:25:00,
2013-05-04 20:30:00,55.6,53.9,30.03,SSE,154,10.0,10.0,94,0.00,,,0.11,Wunderground v.1.15,2013-05-05 01:30:00,
2013-05-04 20:35:00,55.5,53.8,30.03,SSE,154,10.0,11.0,94,0.00,,,0.11,Wunderground v.1.15,2013-05-05 01:35:00,
2013-05-04 20:40:00,55.4,53.7,30.02,SE,141,10.0,10.0,94,0.00,,,0.11,Wunderground v.1.15,2013-05-05 01:40:00,
2013-05-04 20:50:00,55.2,53.5,30.02,SE,132,7.0,7.0,94,0.00,,,0.11,Wunderground v.1.15,2013-05-05 01:50:00,
2013-05-04 21:00:00,55.0,53.3,30.03,SE,141,5.0,8.0,94,0.00,,,0.11,Wunderground v.1.15,2013-05-05 02:00:00,
2013-05-04 21:05:00,54.9,53.2,30.03,SE,136,5.0,8.0,94,0.00,,,0.11,Wunderground v.1.15,2013-05-05 02:05:00,
2013-05-04 21:10:00,54.9,53.2,30.03,SE,131,5.0,5.0,94,0.00,,,0.11,Wunderground v.1.15,2013-05-05 02:10:00,
2013-05-04 21:20:00,54.8,53.4,30.04,SE,137,5.0,5.0,95,0.00,,,0.11,Wunderground v.1.15,2013-05-05 02:20:00,
2013-05-04 21:25:00,54.7,53.3,30.04,SE,138,4.0,5.0,95,0.00,,,0.11,Wunderground v.1.15,2013-05-05 02:25:00,
2013-05-04 21:30:00,54.7,53.3,30.04,SE,139,4.0,5.0,95,0.00,,,0.11,Wunderground v.1.15,2013-05-05 02:30:00,
2013-05-04 21:35:00,54.7,53.3,30.04,SSE,163,4.0,5.0,95,0.00,,,0.11,Wunderground v.1.15,2013-05-05 02:35:00,
2013-05-04 21:40:00,54.7,53.3,30.04,SSE,155,4.0,4.0,95,0.00,,,0.11,Wunderground v.1.15,2013-05-05 02:40:00,
2013-05-04 21:45:00,54.7,53.3,30.04,SE,143,4.0,4.0,95,0.00,,,0.11,Wunderground v.1.15,2013-05-05 02:45:00,
2013-05-04 21:50:00,54.6,53.2,30.04,SSE,151,3.0,3.0,95,0.00,,,0.11,Wunderground v.1.15,2013-05-05 02:50:00,
2013-05-04 21:55:00,54.6,53.2,30.04,SE,141,3.0,3.0,95,0.00,,,0.11,Wunderground v.1.15,2013-05-05 02:55:00,
2013-05-04 22:00:00,54.6,53.5,30.04,SE,132,2.0,2.0,96,0.00,,,0.11,Wunderground v.1.15,2013-05-05 03:00:00,
2013-05-04 22:10:00,54.5,53.4,30.04,SE,144,0.0,0.0,96,0.00,,,0.11,Wunderground v.1.15,2013-05-05 03:10:00,
2013-05-04 22:15:00,54.5,53.4,30.04,SE,143,0.0,0.0,96,0.00,,,0.11,Wunderground v.1.15,2013-05-05 03:15:00,
2013-05-04 22:20:00,54.5,53.4,30.04,SE,144,0.0,0.0,96,0.00,,,0.11,Wunderground v.1.15,2013-05-05 03:20:00,
2013-05-04 22:25:00,54.4,53.3,30.05,SE,143,0.0,0.0,96,0.00,,,0.11,Wunderground v.1.15,2013-05-05 03:25:00,
2013-05-04 22:30:00,54.4,53.3,30.04,SE,143,0.0,0.0,96,0.00,,,0.11,Wunderground v.1.15,2013-05-05 03:30:00,
2013-05-04 22:35:00,54.4,53.3,30.04,SW,219,0.0,0.0,96,0.00,,,0.11,Wunderground v.1.15,2013-05-05 03:35:00,
2013-05-04 22:40:00,54.4,53.3,30.04,SW,221,0.0,0.0,96,0.00,,,0.11,Wunderground v.1.15,2013-05-05 03:40:00,
2013-05-04 22:45:00,54.4,53.3,30.04,SW,226,0.0,0.0,96,0.00,,,0.11,Wunderground v.1.15,2013-05-05 03:45:00,
2013-05-04 22:50:00,54.3,53.2,30.04,SW,226,0.0,0.0,96,0.00,,,0.11,Wunderground v.1.15,2013-05-05 03:50:00,
2013-05-04 22:55:00,54.3,53.2,30.04,SW,226,0.0,0.0,96,0.00,,,0.11,Wunderground v.1.15,2013-05-05 03:55:00,
2013-05-04 23:00:00,54.3,53.2,30.04,SW,228,0.0,0.0,96,0.00,,,0.11,Wunderground v.1.15,2013-05-05 04:00:00,
2013-05-04 23:05:00,54.3,53.2,30.04,SW,228,0.0,0.0,96,0.00,,,0.11,Wunderground v.1.15,2013-05-05 04:05:00,
2013-05-04 23:10:00,54.2,53.1,30.04,SW,228,0.0,0.0,96,0.00,,,0.11,Wunderground v.1.15,2013-05-05 04:10:00,
2013-05-04 23:15:00,54.3,53.2,30.04,SW,231,0.0,0.0,96,0.00,,,0.11,Wunderground v.1.15,2013-05-05 04:15:00,
2013-05-04 23:20:00,54.3,53.2,30.04,SW,231,0.0,0.0,96,0.00,,,0.11,Wunderground v.1.15,2013-05-05 04:20:00,
2013-05-04 23:25:00,54.3,53.2,30.04,SW,231,0.0,0.0,96,0.00,,,0.11,Wunderground v.1.15,2013-05-05 04:25:00,
2013-05-04 23:30:00,54.3,53.2,30.04,SW,231,0.0,0.0,96,0.00,,,0.11,Wunderground v.1.15,2013-05-05 04:30:00,
2013-05-04 23:35:00,54.2,53.1,30.03,West,275,0.0,0.0,96,0.00,,,0.11,Wunderground v.1.15,2013-05-05 04:35:00,
2013-05-04 23:40:00,54.2,53.1,30.03,WNW,287,0.0,0.0,96,0.00,,,0.11,Wunderground v.1.15,2013-05-05 04:40:00,
2013-05-04 23:45:00,54.2,53.1,30.03,NW,304,0.0,1.0,96,0.00,,,0.11,Wunderground v.1.15,2013-05-05 04:45:00,
2013-05-04 23:50:00,54.1,53.0,30.03,WNW,302,1.0,1.0,96,0.00,,,0.11,Wunderground v.1.15,2013-05-05 04:50:00,